Time;durP1;ratioP1;P1;durP2;ratioP2;P2;SDS_P1;SDS_P2;PMS_P1;PMS_P2;Temp;Humidity;BMP_temperature;BMP_pressure;BME280_temperature;BME280_humidity;BME280_pressure;Samples;Min_cycle;Max_cycle;Signal;HPM_P1;HPM_P2
2022/07/15 00:00:37;;;;;;;3.63;1.67;;;14.70;99.90;;;;;;5034704;28;20359;-43
2022/07/15 00:03:03;;;;;;;2.03;1.60;;;14.70;99.90;;;;;;5035257;28;20188;-44
2022/07/15 00:05:29;;;;;;;6.50;1.90;;;14.60;99.90;;;;;;5035605;28;20181;-43
2022/07/15 00:07:54;;;;;;;4.90;1.83;;;14.60;99.90;;;;;;5035738;28;20554;-42
2022/07/15 00:10:21;;;;;;;4.70;1.70;;;14.60;99.90;;;;;;5036568;28;20266;-44
2022/07/15 00:12:55;;;;;;;6.27;1.57;;;14.50;99.90;;;;;;5037757;28;20184;-44
2022/07/15 00:15:23;;;;;;;7.23;2.13;;;14.50;99.90;;;;;;5039108;28;20160;-44
2022/07/15 00:17:49;;;;;;;5.90;1.80;;;14.50;99.90;;;;;;5035905;28;20594;-39
2022/07/15 00:20:15;;;;;;;2.53;1.57;;;14.40;99.90;;;;;;5035404;28;20244;-43
2022/07/15 00:22:42;;;;;;;4.37;1.80;;;14.40;99.90;;;;;;5034601;28;20714;-42
2022/07/15 00:25:09;;;;;;;4.50;1.80;;;14.30;99.90;;;;;;5041771;28;20184;-43
2022/07/15 00:27:36;;;;;;;3.73;1.73;;;14.30;99.90;;;;;;5042168;28;20200;-44
2022/07/15 00:30:03;;;;;;;2.77;1.80;;;14.20;99.90;;;;;;5039876;28;20219;-42
2022/07/15 00:32:29;;;;;;;4.43;1.80;;;14.20;99.90;;;;;;5043054;28;20599;-43
2022/07/15 00:34:54;;;;;;;7.77;1.97;;;14.20;99.90;;;;;;5040891;28;20188;-43
2022/07/15 00:37:20;;;;;;;5.63;1.93;;;14.20;99.90;;;;;;5033921;28;20224;-43
2022/07/15 00:39:46;;;;;;;5.50;2.00;;;14.20;99.90;;;;;;5033595;28;20228;-43
2022/07/15 00:42:43;;;;;;;5.37;1.93;;;14.10;99.90;;;;;;5033632;28;20184;-43
2022/07/15 00:45:01;;;;;;;2.27;1.73;;;14.20;99.90;;;;;;5041287;28;20263;-44
2022/07/15 00:47:27;;;;;;;3.27;2.13;;;14.10;99.90;;;;;;5035281;28;20208;-39
2022/07/15 00:49:53;;;;;;;5.67;2.13;;;14.10;99.90;;;;;;5033749;28;20199;-40
2022/07/15 00:52:21;;;;;;;3.67;1.93;;;14.10;99.90;;;;;;5033258;28;20708;-41
2022/07/15 00:54:50;;;;;;;4.47;1.70;;;14.10;99.90;;;;;;5033356;28;20184;-40
2022/07/15 00:57:17;;;;;;;9.13;2.17;;;14.10;99.90;;;;;;5034549;28;20272;-40
2022/07/15 00:59:45;;;;;;;5.20;2.10;;;14.10;99.90;;;;;;5035251;28;20266;-40
2022/07/15 01:02:12;;;;;;;4.07;2.00;;;14.20;99.90;;;;;;5037752;28;20230;-44
2022/07/15 01:04:39;;;;;;;2.53;1.90;;;14.20;99.90;;;;;;5036254;28;20181;-44
2022/07/15 01:07:05;;;;;;;5.23;2.00;;;14.20;99.90;;;;;;5036923;28;20173;-43
2022/07/15 01:09:30;;;;;;;5.90;2.20;;;14.30;99.90;;;;;;5036275;28;20681;-44
2022/07/15 01:11:56;;;;;;;5.57;2.47;;;14.20;99.90;;;;;;5036793;28;20575;-43
2022/07/15 01:14:22;;;;;;;5.20;2.00;;;14.20;99.90;;;;;;5036103;28;20176;-39
2022/07/15 01:16:47;;;;;;;7.23;2.23;;;14.20;99.90;;;;;;5033308;28;20596;-39
2022/07/15 01:19:13;;;;;;;3.10;1.93;;;14.20;99.90;;;;;;5032873;28;20208;-41
2022/07/15 01:21:38;;;;;;;16.73;2.30;;;14.20;99.90;;;;;;5032941;28;20181;-40
2022/07/15 01:24:04;;;;;;;4.00;2.07;;;14.30;99.90;;;;;;5033176;28;20212;-40
2022/07/15 01:26:30;;;;;;;4.57;2.10;;;14.30;99.90;;;;;;5033643;28;20192;-39
2022/07/15 01:28:55;;;;;;;3.37;1.87;;;14.30;99.90;;;;;;5033103;28;20701;-39
2022/07/15 01:31:21;;;;;;;6.40;2.40;;;14.30;99.90;;;;;;5033055;28;20181;-39
2022/07/15 01:33:47;;;;;;;4.27;2.47;;;14.30;99.90;;;;;;5035529;28;20272;-40
2022/07/15 01:36:12;;;;;;;4.47;2.10;;;14.30;99.90;;;;;;5036824;28;20660;-38
2022/07/15 01:38:38;;;;;;;4.50;2.00;;;14.30;99.90;;;;;;5035798;28;20228;-43
2022/07/15 01:41:03;;;;;;;3.40;2.13;;;14.30;99.90;;;;;;5037027;28;20216;-42
2022/07/15 01:43:29;;;;;;;5.00;1.97;;;14.30;99.90;;;;;;5036344;28;20264;-44
2022/07/15 01:45:55;;;;;;;4.77;2.30;;;14.30;99.90;;;;;;5035109;28;20583;-42
2022/07/15 01:51:04;;;;;;;4.60;2.27;;;14.40;99.90;;;;;;5036612;28;20679;-39
2022/07/15 01:53:30;;;;;;;8.17;2.63;;;14.40;99.90;;;;;;5036887;28;20173;-41
2022/07/15 01:55:56;;;;;;;5.43;2.30;;;14.40;99.90;;;;;;5036096;28;20592;-40
2022/07/15 01:58:22;;;;;;;4.20;2.30;;;14.40;99.90;;;;;;5034742;28;20223;-40
2022/07/15 02:00:49;;;;;;;5.40;2.40;;;14.40;99.90;;;;;;5036036;28;20200;-40
2022/07/15 02:03:15;;;;;;;4.33;2.30;;;14.40;99.90;;;;;;5035078;28;20187;-40
2022/07/15 02:05:40;;;;;;;6.30;3.17;;;14.40;99.90;;;;;;5037026;28;20177;-41
2022/07/15 02:08:06;;;;;;;2.77;2.00;;;14.40;99.90;;;;;;5034689;28;20188;-40
2022/07/15 02:10:40;;;;;;;6.37;2.47;;;14.40;99.90;;;;;;5035697;28;20684;-41
2022/07/15 02:13:12;;;;;;;4.47;2.50;;;14.50;99.90;;;;;;5036222;28;20292;-40
2022/07/15 02:15:39;;;;;;;5.93;2.93;;;14.40;99.90;;;;;;5035933;28;20188;-40
2022/07/15 02:18:06;;;;;;;8.83;2.47;;;14.40;99.90;;;;;;5035646;28;20181;-40
2022/07/15 02:20:33;;;;;;;9.87;2.53;;;14.50;99.90;;;;;;5035659;28;20201;-41
2022/07/15 02:23:01;;;;;;;6.27;2.30;;;14.50;99.90;;;;;;5035908;28;20192;-38
2022/07/15 02:25:29;;;;;;;7.33;2.10;;;14.40;99.90;;;;;;5036120;28;20527;-40
2022/07/15 02:28:00;;;;;;;6.30;2.43;;;14.50;99.90;;;;;;5035550;28;20176;-40
2022/07/15 02:30:28;;;;;;;4.40;2.40;;;14.40;99.90;;;;;;5035445;28;20208;-40
2022/07/15 02:32:54;;;;;;;6.73;1.97;;;14.50;99.90;;;;;;5035752;28;20177;-41
2022/07/15 02:35:19;;;;;;;6.00;2.43;;;14.50;99.90;;;;;;5035736;28;20532;-41
2022/07/15 02:37:46;;;;;;;7.07;2.50;;;14.50;99.90;;;;;;5035239;28;20238;-40
2022/07/15 02:40:12;;;;;;;6.20;2.17;;;14.50;99.90;;;;;;5035298;28;20251;-41
2022/07/15 02:42:38;;;;;;;8.30;2.07;;;14.50;99.90;;;;;;5035214;28;20188;-41
2022/07/15 02:45:05;;;;;;;4.57;1.90;;;14.50;99.90;;;;;;5034820;28;20177;-40
2022/07/15 02:47:31;;;;;;;7.27;1.77;;;14.50;99.90;;;;;;5035402;28;20185;-40
2022/07/15 02:49:56;;;;;;;4.70;2.10;;;14.50;99.90;;;;;;5035103;28;20313;-40
2022/07/15 02:52:22;;;;;;;3.47;1.83;;;14.50;99.90;;;;;;5035374;28;20177;-40
2022/07/15 02:54:48;;;;;;;8.43;2.40;;;14.50;99.90;;;;;;5035396;28;20177;-40
2022/07/15 02:57:13;;;;;;;4.50;2.30;;;14.50;99.90;;;;;;5035552;28;20184;-40
2022/07/15 02:59:39;;;;;;;11.53;2.37;;;14.40;99.90;;;;;;5034877;28;20561;-40
2022/07/15 03:02:05;;;;;;;7.87;2.00;;;14.40;99.90;;;;;;5035018;28;20271;-40
2022/07/15 03:04:31;;;;;;;3.57;1.73;;;14.30;99.90;;;;;;5035154;28;20181;-41
2022/07/15 03:06:56;;;;;;;10.83;2.37;;;14.30;99.90;;;;;;5034795;28;20183;-41
2022/07/15 03:09:22;;;;;;;3.53;2.03;;;14.20;99.90;;;;;;5034767;28;20212;-40
2022/07/15 03:11:47;;;;;;;7.80;2.00;;;14.20;99.90;;;;;;5035710;28;20185;-40
2022/07/15 03:14:13;;;;;;;5.13;1.60;;;14.20;99.90;;;;;;5035432;28;20174;-41
2022/07/15 03:16:38;;;;;;;4.17;1.70;;;14.10;99.90;;;;;;5035719;28;20181;-41
2022/07/15 03:19:04;;;;;;;7.03;2.23;;;14.10;99.90;;;;;;5036022;28;20173;-40
2022/07/15 03:21:30;;;;;;;4.33;1.57;;;14.10;99.90;;;;;;5036218;28;20204;-41
2022/07/15 03:23:56;;;;;;;5.57;1.93;;;14.00;99.90;;;;;;5034570;28;20255;-39
2022/07/15 03:26:21;;;;;;;5.07;2.27;;;14.00;99.90;;;;;;5034515;28;20263;-40
2022/07/15 03:28:47;;;;;;;5.30;2.10;;;14.00;99.90;;;;;;5034324;28;20212;-41
2022/07/15 03:31:13;;;;;;;4.23;2.00;;;13.90;99.90;;;;;;5034368;28;20200;-41
2022/07/15 03:33:38;;;;;;;7.17;1.67;;;13.80;99.90;;;;;;5034417;28;20173;-41
2022/07/15 03:36:05;;;;;;;3.80;1.77;;;13.80;99.90;;;;;;5034502;28;20173;-40
2022/07/15 03:38:31;;;;;;;5.53;1.73;;;13.80;99.90;;;;;;5034110;28;20196;-40
2022/07/15 03:40:56;;;;;;;7.87;2.23;;;13.70;99.90;;;;;;5034177;28;20208;-38
2022/07/15 03:43:26;;;;;;;7.17;1.90;;;13.70;99.90;;;;;;5034120;28;20229;-39
2022/07/15 03:45:52;;;;;;;5.30;1.90;;;13.70;99.90;;;;;;5034135;28;20176;-41
2022/07/15 03:48:18;;;;;;;3.63;1.60;;;13.60;99.90;;;;;;5034307;28;20161;-40
2022/07/15 03:50:43;;;;;;;3.17;1.80;;;13.60;99.90;;;;;;5033874;28;20293;-40
2022/07/15 03:53:09;;;;;;;6.13;2.37;;;13.60;99.90;;;;;;5034217;28;20180;-40
2022/07/15 03:55:36;;;;;;;11.13;2.10;;;13.60;99.90;;;;;;5035035;28;20267;-44
2022/07/15 03:58:01;;;;;;;3.73;1.47;;;13.50;99.90;;;;;;5035023;28;20184;-42
2022/07/15 04:00:27;;;;;;;6.10;2.10;;;13.60;99.90;;;;;;5035680;28;20268;-43
2022/07/15 04:02:53;;;;;;;5.40;1.60;;;13.50;99.90;;;;;;5035846;28;20225;-43
2022/07/15 04:05:18;;;;;;;4.43;1.63;;;13.60;99.90;;;;;;5034663;28;20180;-42
2022/07/15 04:07:44;;;;;;;6.00;1.67;;;13.60;99.90;;;;;;5035673;28;20181;-43
2022/07/15 04:10:09;;;;;;;4.83;1.53;;;13.60;99.90;;;;;;5035129;28;20216;-43
2022/07/15 04:12:35;;;;;;;4.33;1.90;;;13.60;99.90;;;;;;5035312;28;20663;-44
2022/07/15 04:15:01;;;;;;;6.57;1.70;;;13.60;99.90;;;;;;5034994;28;20177;-43
2022/07/15 04:17:27;;;;;;;6.37;1.73;;;13.70;99.90;;;;;;5035349;28;20184;-43
2022/07/15 04:19:52;;;;;;;4.93;2.03;;;13.70;99.90;;;;;;5035226;28;20563;-43
2022/07/15 04:22:18;;;;;;;4.33;1.83;;;13.70;99.90;;;;;;5035098;28;20212;-43
2022/07/15 04:24:43;;;;;;;4.90;1.67;;;13.70;99.90;;;;;;5034970;28;20168;-44
2022/07/15 04:27:09;;;;;;;9.93;2.70;;;13.70;99.90;;;;;;5035315;28;20525;-43
2022/07/15 04:29:35;;;;;;;5.60;1.90;;;13.60;99.90;;;;;;5034781;28;20227;-43
2022/07/15 04:32:01;;;;;;;7.10;2.13;;;13.70;99.90;;;;;;5034749;28;20189;-43
2022/07/15 04:34:27;;;;;;;6.30;2.17;;;13.70;99.90;;;;;;5034665;28;20181;-43
2022/07/15 04:36:52;;;;;;;8.33;1.83;;;13.70;99.90;;;;;;5035028;28;20220;-42
2022/07/15 04:39:18;;;;;;;8.13;2.47;;;13.70;99.90;;;;;;5035114;28;20205;-42
2022/07/15 04:41:43;;;;;;;4.30;1.97;;;13.70;99.90;;;;;;5035410;28;20185;-43
2022/07/15 04:44:09;;;;;;;5.83;2.10;;;13.70;99.90;;;;;;5035088;28;20191;-44
2022/07/15 04:46:35;;;;;;;4.53;2.00;;;13.60;99.90;;;;;;5034686;28;20191;-43
2022/07/15 04:51:44;;;;;;;10.60;2.63;;;13.60;99.90;;;;;;5035154;28;20164;-43
2022/07/15 04:54:10;;;;;;;6.17;2.50;;;13.60;99.90;;;;;;5034806;28;20550;-41
2022/07/15 04:56:36;;;;;;;8.20;2.30;;;13.60;99.90;;;;;;5035377;28;20632;-42
2022/07/15 04:59:01;;;;;;;7.80;2.53;;;13.60;99.90;;;;;;5034524;28;20170;-42
2022/07/15 05:01:27;;;;;;;4.13;2.17;;;13.70;99.90;;;;;;5034735;28;20649;-43
2022/07/15 05:03:52;;;;;;;4.17;2.13;;;13.60;99.90;;;;;;5035346;28;20184;-44
2022/07/15 05:06:18;;;;;;;4.63;2.10;;;13.70;99.90;;;;;;5035154;28;20188;-43
2022/07/15 05:08:43;;;;;;;4.73;2.37;;;13.70;99.90;;;;;;5037142;28;20703;-44
2022/07/15 05:11:09;;;;;;;6.70;2.33;;;13.70;99.90;;;;;;5036923;28;20212;-43
2022/07/15 05:13:37;;;;;;;4.60;2.10;;;13.80;99.90;;;;;;5038816;28;20720;-42
2022/07/15 05:16:03;;;;;;;6.57;2.63;;;13.80;99.90;;;;;;5037108;28;20599;-43
2022/07/15 05:18:28;;;;;;;9.27;2.80;;;13.80;99.90;;;;;;5037043;28;20177;-42
2022/07/15 05:20:54;;;;;;;6.43;2.20;;;13.90;99.90;;;;;;5038244;28;20189;-44
2022/07/15 05:23:19;;;;;;;5.13;2.47;;;13.90;99.90;;;;;;5038098;28;20343;-44
2022/07/15 05:25:45;;;;;;;9.53;2.23;;;14.00;99.90;;;;;;5038665;28;20183;-42
2022/07/15 05:28:11;;;;;;;7.53;2.40;;;14.10;99.90;;;;;;5020454;28;20200;-42
2022/07/15 05:30:37;;;;;;;6.53;2.13;;;14.10;99.90;;;;;;5037989;28;20239;-44
2022/07/15 05:33:03;;;;;;;5.30;2.40;;;14.20;99.90;;;;;;5038227;28;20638;-44
2022/07/15 05:35:29;;;;;;;7.07;2.40;;;14.20;99.90;;;;;;5036894;28;20263;-44
2022/07/15 05:37:54;;;;;;;5.53;2.13;;;14.30;99.90;;;;;;5037877;28;20193;-42
2022/07/15 05:40:21;;;;;;;7.27;2.47;;;14.30;99.90;;;;;;5038022;28;20236;-44
2022/07/15 05:42:46;;;;;;;7.03;2.37;;;14.40;99.90;;;;;;5036465;28;20188;-40
2022/07/15 05:45:12;;;;;;;3.47;2.07;;;14.50;99.90;;;;;;5036667;28;20235;-40
2022/07/15 05:47:38;;;;;;;5.67;2.00;;;14.40;99.90;;;;;;5036416;28;20586;-40
2022/07/15 05:50:05;;;;;;;4.37;1.90;;;14.40;99.90;;;;;;5036133;28;20247;-40
2022/07/15 05:52:31;;;;;;;5.93;2.20;;;14.50;99.90;;;;;;5036192;28;20190;-40
2022/07/15 05:54:56;;;;;;;5.57;1.80;;;14.50;99.90;;;;;;5034940;28;20787;-39
2022/07/15 05:57:22;;;;;;;5.13;2.17;;;14.50;99.90;;;;;;5036416;28;20177;-38
2022/07/15 05:59:48;;;;;;;6.87;2.17;;;14.50;99.90;;;;;;5036338;28;20287;-40
2022/07/15 06:02:13;;;;;;;10.10;2.40;;;14.50;99.90;;;;;;5036346;28;20177;-40
2022/07/15 06:04:40;;;;;;;8.30;2.03;;;14.60;99.90;;;;;;5035960;28;20536;-41
2022/07/15 06:07:06;;;;;;;6.53;2.20;;;14.60;99.90;;;;;;5036255;28;20185;-40
2022/07/15 06:09:31;;;;;;;7.60;2.17;;;14.70;99.90;;;;;;5035812;28;20263;-40
2022/07/15 06:11:58;;;;;;;6.00;2.53;;;14.80;99.90;;;;;;5034597;28;20667;-39
2022/07/15 06:14:24;;;;;;;8.10;3.13;;;14.90;99.90;;;;;;5036178;28;20185;-39
2022/07/15 06:16:49;;;;;;;8.17;2.53;;;14.90;99.90;;;;;;5035811;28;20174;-37
2022/07/15 06:19:15;;;;;;;4.70;2.50;;;15.00;99.90;;;;;;5034939;28;20236;-38
2022/07/15 06:21:40;;;;;;;6.33;2.33;;;15.10;99.90;;;;;;5036015;28;20185;-40
2022/07/15 06:24:06;;;;;;;8.90;2.47;;;15.30;99.90;;;;;;5035903;28;20185;-41
2022/07/15 06:26:32;;;;;;;4.97;2.50;;;15.40;99.90;;;;;;5035660;28;20608;-39
2022/07/15 06:28:57;;;;;;;6.90;2.10;;;15.50;99.90;;;;;;5035385;28;20235;-41
2022/07/15 06:31:23;;;;;;;7.20;2.07;;;15.70;99.90;;;;;;5034576;28;20645;-40
2022/07/15 06:33:49;;;;;;;9.03;2.00;;;15.70;99.90;;;;;;5036599;28;20223;-40
2022/07/15 06:36:15;;;;;;;6.80;2.20;;;15.80;99.90;;;;;;5035619;28;20181;-41
2022/07/15 06:38:40;;;;;;;9.10;2.67;;;15.90;99.90;;;;;;5035386;28;20568;-40
2022/07/15 06:41:06;;;;;;;6.63;1.70;;;16.00;99.90;;;;;;5035419;28;20680;-40
2022/07/15 06:43:31;;;;;;;4.87;1.47;;;16.10;99.90;;;;;;5035375;28;20523;-38
2022/07/15 06:45:57;;;;;;;2.27;1.50;;;16.20;99.90;;;;;;5035307;28;20644;-37
2022/07/15 06:48:22;;;;;;;6.03;1.67;;;16.30;99.90;;;;;;5035132;28;20255;-40
2022/07/15 06:50:48;;;;;;;6.07;1.60;;;16.30;99.90;;;;;;5035096;28;20213;-40
2022/07/15 06:53:14;;;;;;;4.60;1.50;;;16.50;99.90;;;;;;5035175;28;20250;-38
2022/07/15 06:55:39;;;;;;;4.87;1.80;;;16.70;99.90;;;;;;5035358;28;20645;-38
2022/07/15 06:58:05;;;;;;;11.47;1.57;;;17.00;99.90;;;;;;5035078;28;20649;-38
2022/07/15 07:00:31;;;;;;;6.27;1.47;;;17.10;99.90;;;;;;5035077;28;20696;-39
2022/07/15 07:02:56;;;;;;;3.60;1.40;;;17.30;99.90;;;;;;5035163;28;20200;-39
2022/07/15 07:05:22;;;;;;;5.60;1.43;;;17.40;99.90;;;;;;5035491;28;20216;-39
2022/07/15 07:07:47;;;;;;;2.67;1.20;;;17.40;99.90;;;;;;5035092;28;20637;-38
2022/07/15 07:10:13;;;;;;;9.63;1.40;;;17.80;99.90;;;;;;5034637;28;20215;-39
2022/07/15 07:12:39;;;;;;;5.33;1.30;;;18.20;99.90;;;;;;5034971;28;20280;-39
2022/07/15 07:15:07;;;;;;;3.33;1.03;;;18.30;99.90;;;;;;5034669;28;20184;-37
2022/07/15 07:17:32;;;;;;;7.43;1.50;;;18.20;99.90;;;;;;5034897;28;20165;-38
2022/07/15 07:19:58;;;;;;;3.07;1.23;;;18.20;99.90;;;;;;5034559;28;20561;-39
2022/07/15 07:22:24;;;;;;;4.37;1.30;;;18.20;99.90;;;;;;5035022;28;20177;-38
2022/07/15 07:24:49;;;;;;;4.83;1.10;;;18.40;99.90;;;;;;5034758;28;20644;-37
2022/07/15 07:27:15;;;;;;;6.77;1.23;;;18.50;99.90;;;;;;5034518;28;20173;-41
2022/07/15 07:29:40;;;;;;;3.33;1.00;;;18.50;99.90;;;;;;5051357;23;20708;-41
2022/07/15 07:32:06;;;;;;;2.53;1.07;;;18.40;99.90;;;;;;5053356;28;20199;-39
2022/07/15 07:34:32;;;;;;;2.60;0.97;;;18.30;99.90;;;;;;5054301;28;20204;-43
2022/07/15 07:36:57;;;;;;;6.33;1.23;;;18.30;99.90;;;;;;5054839;28;20187;-43
2022/07/15 07:39:23;;;;;;;3.17;1.33;;;18.30;99.90;;;;;;5054113;28;20222;-39
2022/07/15 07:41:53;;;;;;;4.57;1.33;;;18.30;99.90;;;;;;5054427;28;20177;-43
2022/07/15 07:44:19;;;;;;;7.07;1.40;;;18.30;99.90;;;;;;5055218;28;20259;-43
2022/07/15 07:46:45;;;;;;;5.23;1.10;;;18.30;99.90;;;;;;5054077;28;20241;-40
2022/07/15 07:49:12;;;;;;;1.43;0.70;;;18.40;99.90;;;;;;5053912;28;20208;-41
2022/07/15 07:51:40;;;;;;;3.83;1.00;;;18.70;99.90;;;;;;5055506;28;20181;-41
2022/07/15 07:54:06;;;;;;;2.17;0.80;;;18.80;99.90;;;;;;5055993;28;20259;-40
2022/07/15 07:56:32;;;;;;;4.33;1.27;;;18.90;99.90;;;;;;5053368;28;20181;-43
2022/07/15 07:58:57;;;;;;;4.33;1.20;;;18.90;99.90;;;;;;5054211;28;20188;-42
2022/07/15 08:01:23;;;;;;;4.10;0.87;;;19.30;99.90;;;;;;5054032;28;20229;-42
2022/07/15 08:03:50;;;;;;;4.73;1.10;;;19.70;99.90;;;;;;5054178;28;20667;-42
2022/07/15 08:06:16;;;;;;;2.73;0.80;;;19.80;99.90;;;;;;5054150;28;20214;-41
2022/07/15 08:08:41;;;;;;;4.03;1.17;;;19.90;99.90;;;;;;5053993;28;20172;-40
2022/07/15 08:11:07;;;;;;;2.33;0.60;;;19.90;99.90;;;;;;5053623;28;20253;-40
2022/07/15 08:13:33;;;;;;;2.93;0.80;;;19.80;99.90;;;;;;5053980;28;20253;-43
2022/07/15 08:15:58;;;;;;;3.97;0.93;;;20.00;99.90;;;;;;5054143;28;20180;-41
2022/07/15 08:18:25;;;;;;;2.50;0.90;;;20.30;99.90;;;;;;5054141;28;20172;-43
2022/07/15 08:20:51;;;;;;;1.57;0.80;;;20.50;99.90;;;;;;5053383;28;20692;-40
2022/07/15 08:23:20;;;;;;;3.00;1.03;;;20.40;99.90;;;;;;5052227;28;20187;-41
2022/07/15 08:25:47;;;;;;;2.13;0.40;;;20.50;99.90;;;;;;5053651;28;20184;-42
2022/07/15 08:28:12;;;;;;;5.17;1.20;;;20.60;99.90;;;;;;5053472;28;20516;-41
2022/07/15 08:30:38;;;;;;;1.93;0.80;;;20.90;99.90;;;;;;5053093;28;20212;-41
2022/07/15 08:33:04;;;;;;;2.90;0.70;;;21.20;99.90;;;;;;5053393;28;20183;-43
2022/07/15 08:35:30;;;;;;;3.10;1.03;;;21.40;99.90;;;;;;5053596;28;20183;-40
2022/07/15 08:37:56;;;;;;;2.13;0.77;;;21.50;99.90;;;;;;5053370;28;20218;-41
2022/07/15 08:40:23;;;;;;;2.40;0.70;;;21.50;99.90;;;;;;5053472;28;20196;-39
2022/07/15 08:42:49;;;;;;;3.83;1.03;;;21.30;99.90;;;;;;5052722;28;20176;-41
2022/07/15 08:45:16;;;;;;;2.53;0.87;;;21.20;99.90;;;;;;5053101;28;20187;-39
2022/07/15 08:47:44;;;;;;;1.97;0.70;;;21.20;99.90;;;;;;5053194;28;20175;-42
2022/07/15 08:50:12;;;;;;;2.00;0.60;;;21.10;99.90;;;;;;5053057;28;20644;-39
2022/07/15 08:52:38;;;;;;;1.87;0.60;;;21.20;99.90;;;;;;5053205;28;20527;-43
2022/07/15 08:55:05;;;;;;;3.30;0.70;;;21.20;99.90;;;;;;5053099;28;20188;-41
2022/07/15 08:57:32;;;;;;;1.77;0.60;;;21.30;99.90;;;;;;5053174;28;20218;-43
2022/07/15 08:59:57;;;;;;;2.87;0.97;;;21.50;99.90;;;;;;5053619;28;20196;-39
2022/07/15 09:02:23;;;;;;;2.80;0.53;;;21.50;99.90;;;;;;5051882;28;20672;-39
2022/07/15 09:05:26;;;;;;;2.67;0.70;;;21.60;99.90;;;;;;5053515;28;20177;-40
2022/07/15 09:07:59;;;;;;;3.37;0.90;;;22.00;99.90;;;;;;5053386;28;20180;-41
2022/07/15 09:10:43;;;;;;;2.63;1.17;;;22.00;99.90;;;;;;5053062;28;20295;-41
2022/07/15 09:13:22;;;;;;;4.23;0.70;;;21.80;99.90;;;;;;5053003;28;20180;-42
2022/07/15 09:15:49;;;;;;;1.70;0.70;;;21.60;99.90;;;;;;5052945;28;20165;-40
2022/07/15 09:18:18;;;;;;;2.50;0.70;;;21.60;99.90;;;;;;5053216;28;20187;-39
2022/07/15 09:20:44;;;;;;;1.60;0.87;;;21.80;99.90;;;;;;5052780;28;20203;-43
2022/07/15 09:23:17;;;;;;;2.07;0.73;;;22.20;99.90;;;;;;5053067;28;20173;-42
2022/07/15 09:25:43;;;;;;;3.33;0.80;;;22.40;99.90;;;;;;5052953;28;20164;-41
2022/07/15 09:28:09;;;;;;;4.87;0.70;;;22.60;99.90;;;;;;5052849;28;20674;-41
2022/07/15 09:36:06;;;;;;;1.27;0.70;;;22.90;99.90;;;;;;5053390;28;20210;-40
2022/07/15 09:38:33;;;;;;;2.37;0.70;;;22.80;99.90;;;;;;5053336;28;20173;-40
2022/07/15 09:41:00;;;;;;;2.83;0.80;;;22.60;99.90;;;;;;5052879;28;20196;-42
2022/07/15 09:43:25;;;;;;;2.27;0.70;;;22.40;99.90;;;;;;5053039;28;20537;-40
2022/07/15 09:46:01;;;;;;;3.80;1.10;;;22.20;99.90;;;;;;5052987;28;20186;-42
2022/07/15 09:48:28;;;;;;;3.83;1.10;;;21.90;99.90;;;;;;5052639;28;20189;-41
2022/07/15 09:50:59;;;;;;;4.87;1.10;;;21.90;99.90;;;;;;5052471;28;20235;-41
2022/07/15 09:53:25;;;;;;;4.43;0.70;;;22.10;99.90;;;;;;5052883;28;20164;-40
2022/07/15 09:55:52;;;;;;;1.73;0.70;;;22.00;99.90;;;;;;5056469;28;20203;-40
2022/07/15 09:58:19;;;;;;;1.47;0.90;;;22.00;99.90;;;;;;5056807;28;20185;-39
2022/07/15 10:00:45;;;;;;;2.93;1.10;;;22.20;99.90;;;;;;5056142;28;20269;-41
2022/07/15 10:03:11;;;;;;;2.03;0.90;;;22.00;99.90;;;;;;5056145;28;20176;-42
2022/07/15 10:05:39;;;;;;;1.53;0.93;;;21.90;99.90;;;;;;5056185;28;20200;-42
2022/07/15 10:08:08;;;;;;;2.30;0.93;;;21.80;99.90;;;;;;5054791;28;20184;-39
2022/07/15 10:10:34;;;;;;;3.30;0.87;;;21.70;99.90;;;;;;5054641;28;20585;-38
2022/07/15 10:13:23;;;;;;;2.83;1.20;;;21.90;99.90;;;;;;5056203;28;20173;-37
2022/07/15 10:15:54;;;;;;;2.07;0.70;;;22.10;99.90;;;;;;5055919;28;20156;-40
2022/07/15 10:18:33;;;;;;;2.77;0.90;;;22.40;99.90;;;;;;5055821;28;20172;-42
2022/07/15 10:21:32;;;;;;;2.00;1.00;;;22.80;99.90;;;;;;5055671;28;20211;-41
2022/07/15 10:24:35;;;;;;;2.50;1.07;;;23.00;99.90;;;;;;5038846;28;20295;-40
2022/07/15 10:27:26;;;;;;;4.00;0.97;;;23.10;99.90;;;;;;5044400;28;20609;-40
2022/07/15 10:29:53;;;;;;;4.07;0.87;;;22.90;99.90;;;;;;5055552;28;20216;-40
2022/07/15 10:32:18;;;;;;;1.37;0.77;;;22.80;99.90;;;;;;5056407;28;20258;-41
2022/07/15 10:34:44;;;;;;;1.33;0.90;;;22.80;99.90;;;;;;5055652;28;20215;-41
2022/07/15 10:37:12;;;;;;;2.83;1.17;;;22.60;99.90;;;;;;5055840;28;20194;-40
2022/07/15 10:39:58;;;;;;;2.77;0.70;;;22.40;99.90;;;;;;5055805;28;20223;-40
2022/07/15 10:42:24;;;;;;;3.67;0.93;;;22.40;99.90;;;;;;5056518;28;20172;-41
2022/07/15 10:44:59;;;;;;;2.97;0.87;;;22.60;99.90;;;;;;5055900;28;20204;-41
2022/07/15 10:47:25;;;;;;;1.30;0.70;;;22.70;99.90;;;;;;5055683;28;20597;-41
2022/07/15 10:49:51;;;;;;;2.50;1.00;;;23.10;99.90;;;;;;5055708;28;20699;-42
2022/07/15 10:52:21;;;;;;;7.27;1.13;;;23.20;99.90;;;;;;5056326;28;20180;-41
2022/07/15 10:55:01;;;;;;;2.03;0.83;;;23.30;99.90;;;;;;5055290;28;20172;-40
2022/07/15 10:57:50;;;;;;;3.07;0.93;;;23.10;99.90;;;;;;5055121;28;20175;-41
2022/07/15 11:00:32;;;;;;;3.60;0.90;;;22.80;99.90;;;;;;5055458;28;20562;-41
2022/07/15 11:03:05;;;;;;;4.43;0.97;;;22.70;99.90;;;;;;5055251;28;20168;-42
2022/07/15 11:05:31;;;;;;;3.57;0.80;;;22.60;98.90;;;;;;5053266;28;20552;-40
2022/07/15 11:07:57;;;;;;;1.97;0.70;;;22.30;99.90;;;;;;5054935;28;20184;-41
2022/07/15 11:10:23;;;;;;;2.00;0.70;;;22.40;99.90;;;;;;5054587;28;20753;-40
2022/07/15 11:12:49;;;;;;;4.60;1.07;;;22.50;99.90;;;;;;5054860;28;20181;-40
2022/07/15 11:15:19;;;;;;;2.13;0.80;;;22.60;99.90;;;;;;5054758;28;20179;-41
2022/07/15 11:17:51;;;;;;;1.90;0.77;;;22.60;99.90;;;;;;5055744;28;20600;-41
2022/07/15 11:20:19;;;;;;;3.40;0.87;;;22.60;99.90;;;;;;5054826;28;20203;-40
2022/07/15 11:22:50;;;;;;;2.73;1.03;;;22.80;99.90;;;;;;5054560;28;20192;-40
2022/07/15 11:25:32;;;;;;;2.80;1.10;;;22.90;99.90;;;;;;5054781;28;20173;-40
2022/07/15 11:28:00;;;;;;;2.20;0.90;;;23.00;99.90;;;;;;5053220;28;20180;-40
2022/07/15 11:30:28;;;;;;;1.80;0.73;;;23.00;99.90;;;;;;5054100;28;20220;-41
2022/07/15 11:32:56;;;;;;;2.13;0.70;;;23.20;99.90;;;;;;5054380;28;20259;-40
2022/07/15 11:35:22;;;;;;;2.10;0.70;;;23.30;99.90;;;;;;5054351;28;20211;-42
2022/07/15 11:37:48;;;;;;;1.57;0.90;;;23.50;99.90;;;;;;5054204;28;20180;-41
2022/07/15 11:45:49;;;;;;;2.00;0.80;;;24.20;99.90;;;;;;5054479;28;20203;-41
2022/07/15 11:48:15;;;;;;;3.53;0.70;;;24.20;99.90;;;;;;5054167;28;20599;-41
2022/07/15 11:50:52;;;;;;;6.23;0.80;;;24.20;98.60;;;;;;5053000;28;20283;-40
2022/07/15 11:53:18;;;;;;;3.90;0.80;;;24.00;98.80;;;;;;5054420;28;20168;-42
2022/07/15 11:55:58;;;;;;;2.73;0.80;;;24.20;99.90;;;;;;5054269;28;20192;-40
2022/07/15 11:58:33;;;;;;;2.23;0.70;;;24.00;96.50;;;;;;5054464;28;20188;-41
2022/07/15 12:01:31;;;;;;;1.90;0.70;;;23.70;99.90;;;;;;5055765;28;20256;-45
2022/07/15 12:04:40;;;;;;;2.50;0.90;;;23.60;97.30;;;;;;5055723;28;20167;-42
2022/07/15 12:07:07;;;;;;;1.63;0.83;;;23.50;99.90;;;;;;5056342;28;20207;-39
2022/07/15 12:09:52;;;;;;;5.18;1.20;;;23.50;97.50;;;;;;5054196;28;20212;-41
2022/07/15 12:13:14;;;;;;;2.38;0.90;;;23.40;97.70;;;;;;5055460;28;20644;-42
2022/07/15 12:15:48;;;;;;;2.38;0.93;;;23.40;99.90;;;;;;5056396;28;20239;-44
2022/07/15 12:18:21;;;;;;;3.38;0.75;;;23.50;99.20;;;;;;5054803;28;20175;-42
2022/07/15 12:20:46;;;;;;;5.18;0.75;;;23.30;97.70;;;;;;5050459;28;20217;-44
2022/07/15 12:23:12;;;;;;;3.53;1.08;;;23.10;98.60;;;;;;5047734;28;20188;-44
2022/07/15 12:25:38;;;;;;;3.53;1.05;;;23.30;99.90;;;;;;5033495;28;20199;-42
2022/07/15 12:28:05;;;;;;;3.20;1.00;;;23.60;97.80;;;;;;5048634;28;20210;-44
2022/07/15 12:30:37;;;;;;;1.50;0.70;;;24.00;99.90;;;;;;5033465;28;20747;-42
2022/07/15 12:33:20;;;;;;;2.35;0.93;;;24.50;99.90;;;;;;5033804;28;20188;-44
2022/07/15 12:35:46;;;;;;;1.55;1.00;;;24.90;99.90;;;;;;5033983;28;20177;-44
2022/07/15 12:38:30;;;;;;;3.55;0.90;;;25.00;97.80;;;;;;5032620;28;20200;-43
2022/07/15 12:41:23;;;;;;;2.55;0.95;;;25.00;98.20;;;;;;5034070;28;20212;-42
2022/07/15 12:43:54;;;;;;;3.25;0.80;;;24.90;97.40;;;;;;5033063;28;20173;-44
2022/07/15 12:46:40;;;;;;;5.55;0.82;;;24.50;96.50;;;;;;5034518;28;20165;-44
2022/07/15 12:49:07;;;;;;;3.00;0.98;;;24.20;96.80;;;;;;5034521;28;20298;-43
2022/07/15 12:51:34;;;;;;;2.47;0.70;;;24.00;96.20;;;;;;5034788;28;20266;-44
2022/07/15 12:54:06;;;;;;;1.92;0.60;;;23.80;95.40;;;;;;5034521;28;20327;-45
2022/07/15 12:56:50;;;;;;;2.08;0.88;;;23.60;95.60;;;;;;5034617;28;20234;-44
2022/07/15 12:59:16;;;;;;;3.45;0.85;;;23.40;96.50;;;;;;5034752;28;20292;-43
2022/07/15 13:02:01;;;;;;;3.65;0.73;;;23.30;96.70;;;;;;5035935;28;20582;-43
2022/07/15 13:04:27;;;;;;;2.10;0.80;;;23.10;96.80;;;;;;5033073;28;20266;-43
2022/07/15 13:06:53;;;;;;;3.80;0.77;;;23.10;98.30;;;;;;5034228;28;20180;-41